createdAt,value
2022-08-05T00:00:06.697Z,2.95
2022-08-05T00:05:09.711Z,3.10
2022-08-05T00:10:32.418Z,2.80
2022-08-05T00:15:54.913Z,4.22
2022-08-05T00:20:58.869Z,3.13
2022-08-05T00:26:01.334Z,2.90
2022-08-05T00:31:07.697Z,3.47
2022-08-05T00:36:16.172Z,3.15
2022-08-05T00:41:51.750Z,3.47
2022-08-05T00:47:02.196Z,3.40
2022-08-05T00:52:08.060Z,3.15
2022-08-05T00:57:10.604Z,3.60
2022-08-05T01:02:14.375Z,3.80
2022-08-05T01:07:19.106Z,3.15
2022-08-05T01:12:23.086Z,3.05
2022-08-05T01:17:30.844Z,3.05
2022-08-05T01:22:57.288Z,3.00
2022-08-05T01:28:16.583Z,2.78
2022-08-05T01:33:25.307Z,3.08
2022-08-05T01:38:30.197Z,2.78
2022-08-05T01:43:34.681Z,2.75
2022-08-05T01:48:40.007Z,3.20
2022-08-05T01:53:57.500Z,3.25
2022-08-05T01:59:05.674Z,3.00
2022-08-05T02:04:11.790Z,3.10
2022-08-05T02:14:24.959Z,2.78
2022-08-05T02:19:34.683Z,3.03
2022-08-05T02:24:39.889Z,3.20
2022-08-05T02:29:58.388Z,2.97
2022-08-05T02:35:13.424Z,3.28
2022-08-05T02:40:18.049Z,3.80
2022-08-05T02:45:23.964Z,2.97
2022-08-05T02:50:28.389Z,2.72
2022-08-05T02:55:54.065Z,3.85
2022-08-05T03:00:58.276Z,2.83
2022-08-05T03:06:53.575Z,3.10
2022-08-05T03:11:54.739Z,3.28
2022-08-05T03:21:55.962Z,3.22
2022-08-05T03:26:59.163Z,3.33
2022-08-05T03:32:04.557Z,3.50
2022-08-05T03:37:11.805Z,3.67
2022-08-05T03:42:16.840Z,3.30
2022-08-05T03:47:20.930Z,4.05
2022-08-05T03:52:36.958Z,3.88
2022-08-05T03:57:54.510Z,3.15
2022-08-05T04:03:01.244Z,3.35
2022-08-05T04:08:29.977Z,3.60
2022-08-05T04:13:49.712Z,3.80
2022-08-05T04:18:54.946Z,3.17
2022-08-05T04:24:06.403Z,3.22
2022-08-05T04:29:11.336Z,3.30
2022-08-05T04:34:18.481Z,3.08
2022-08-05T04:39:35.880Z,2.30
2022-08-05T04:44:38.662Z,3.05
2022-08-05T04:50:02.801Z,2.72
2022-08-05T04:55:14.264Z,2.83
2022-08-05T05:00:18.443Z,2.47
2022-08-05T05:05:28.808Z,2.70
2022-08-05T05:10:33.853Z,2.35
2022-08-05T05:15:56.796Z,2.70
2022-08-05T05:21:00.900Z,2.90
2022-08-05T05:26:03.383Z,3.20
2022-08-05T05:31:08.794Z,2.83
2022-08-05T05:36:12.936Z,3.70
2022-08-05T05:41:17.233Z,3.55
2022-08-05T05:46:21.850Z,3.72
2022-08-05T05:51:27.800Z,3.42
2022-08-05T05:56:34.839Z,4.00
2022-08-05T06:01:40.045Z,3.97
2022-08-05T06:06:47.753Z,4.32
2022-08-05T06:12:01.401Z,4.03
2022-08-05T06:17:22.044Z,3.70
2022-08-05T06:22:30.275Z,4.53
2022-08-05T06:28:10.540Z,4.72
2022-08-05T06:32:59.699Z,4.63
2022-08-05T06:38:10.104Z,5.13
2022-08-05T06:43:58.933Z,5.57
2022-08-05T06:48:56.455Z,4.72
2022-08-05T06:54:02.730Z,5.18
2022-08-05T06:59:09.632Z,4.70
2022-08-05T07:04:14.319Z,4.82
2022-08-05T07:09:25.563Z,5.05
2022-08-05T07:14:53.956Z,4.60
2022-08-05T07:25:54.472Z,4.82
2022-08-05T07:30:43.300Z,4.70
2022-08-05T07:36:01.995Z,4.68
2022-08-05T07:42:09.232Z,5.05
2022-08-05T07:46:34.466Z,4.55
2022-08-05T07:51:48.909Z,4.60
2022-08-05T07:57:02.704Z,4.60
2022-08-05T08:02:26.860Z,4.63
2022-08-05T08:07:39.767Z,4.15
2022-08-05T08:12:58.749Z,4.10
2022-08-05T08:18:01.977Z,4.97
2022-08-05T08:23:11.528Z,3.90
2022-08-05T08:28:37.122Z,4.10
2022-08-05T08:33:45.320Z,4.10
2022-08-05T08:38:53.424Z,4.53
2022-08-05T08:45:18.644Z,3.60
2022-08-05T08:50:12.984Z,4.20
2022-08-05T08:54:48.119Z,3.40
2022-08-05T08:59:52.082Z,3.60
2022-08-05T09:05:16.583Z,4.18
2022-08-05T09:10:21.201Z,3.70
2022-08-05T09:15:31.014Z,4.05
2022-08-05T09:20:37.435Z,4.47
2022-08-05T09:25:59.784Z,4.03
2022-08-05T09:31:22.321Z,3.33
2022-08-05T09:36:54.154Z,3.60
2022-08-05T09:42:01.061Z,3.40
2022-08-05T09:47:12.657Z,3.33
2022-08-05T09:52:24.710Z,3.20
2022-08-05T09:57:35.143Z,2.88
2022-08-05T10:02:42.238Z,2.60
2022-08-05T10:08:10.927Z,3.40
2022-08-05T10:13:44.199Z,2.83
2022-08-05T10:18:51.756Z,2.90
2022-08-05T10:24:00.033Z,3.35
2022-08-05T10:29:03.471Z,3.10
2022-08-05T10:34:08.360Z,3.38
2022-08-05T10:39:25.027Z,2.80
2022-08-05T10:44:38.995Z,3.60
2022-08-05T10:50:31.811Z,3.47
2022-08-05T10:56:03.477Z,3.30
2022-08-05T11:01:02.769Z,3.53
2022-08-05T11:06:15.266Z,3.45
2022-08-05T11:11:44.775Z,4.00
2022-08-05T11:18:00.179Z,3.13
2022-08-05T11:22:57.991Z,2.78
2022-08-05T11:28:39.652Z,3.08
2022-08-05T11:33:54.798Z,2.65
2022-08-05T11:38:59.053Z,2.63
2022-08-05T11:44:08.479Z,3.03
2022-08-05T11:49:14.439Z,2.20
2022-08-05T11:54:33.705Z,2.10
2022-08-05T11:59:50.055Z,2.17
2022-08-05T12:04:59.603Z,2.15
2022-08-05T12:10:09.077Z,2.20
2022-08-05T12:15:20.673Z,2.05
2022-08-05T12:20:41.358Z,2.30
2022-08-05T12:25:52.509Z,2.05
2022-08-05T12:30:57.442Z,2.35
2022-08-05T12:36:01.910Z,1.80
2022-08-05T12:41:12.974Z,1.90
2022-08-05T12:46:29.276Z,2.13
2022-08-05T12:52:13.455Z,1.83
2022-08-05T12:56:59.667Z,2.00
2022-08-05T13:02:07.957Z,2.08
2022-08-05T13:07:31.010Z,2.22
2022-08-05T13:12:57.141Z,2.40
2022-08-05T13:18:00.345Z,2.05
2022-08-05T13:23:07.303Z,2.30
2022-08-05T13:28:12.998Z,1.80
2022-08-05T13:34:23.963Z,1.98
2022-08-05T13:38:42.179Z,2.20
2022-08-05T13:43:54.867Z,1.95
2022-08-05T13:49:00.897Z,2.15
2022-08-05T13:54:03.722Z,2.13
2022-08-05T13:59:20.093Z,2.38
2022-08-05T14:04:41.387Z,2.20
2022-08-05T14:09:46.357Z,2.10
2022-08-05T14:14:51.362Z,2.22
2022-08-05T14:19:56.822Z,2.20
2022-08-05T14:25:06.169Z,2.40
2022-08-05T14:30:23.170Z,2.70
2022-08-05T14:35:37.543Z,2.40
2022-08-05T14:40:51.819Z,2.43
2022-08-05T14:45:55.664Z,2.45
2022-08-05T14:50:58.383Z,2.40
2022-08-05T14:56:03.493Z,2.20
2022-08-05T15:01:15.540Z,2.65
2022-08-05T15:06:19.414Z,2.50
2022-08-05T15:11:51.507Z,2.30
2022-08-05T15:16:54.221Z,2.43
2022-08-05T15:21:59.934Z,2.47
2022-08-05T15:27:03.464Z,8.10
2022-08-05T15:32:07.815Z,5.72
2022-08-05T15:37:14.779Z,6.05
2022-08-05T15:42:54.278Z,6.10
2022-08-05T15:47:43.484Z,7.18
2022-08-05T15:52:53.322Z,10.90
2022-08-05T15:57:57.689Z,11.05
2022-08-05T16:03:01.567Z,9.18
2022-08-05T16:08:05.241Z,6.30
2022-08-05T16:13:07.786Z,4.30
2022-08-05T16:18:12.488Z,3.72
2022-08-05T16:23:16.991Z,2.83
2022-08-05T16:28:19.577Z,2.92
2022-08-05T16:33:23.402Z,2.40
2022-08-05T16:38:29.527Z,2.42
2022-08-05T16:43:33.683Z,2.78
2022-08-05T16:48:39.120Z,3.15
2022-08-05T16:54:06.201Z,2.22
2022-08-05T16:59:08.168Z,2.40
2022-08-05T17:04:12.378Z,2.22
2022-08-05T17:09:17.790Z,1.65
2022-08-05T17:14:22.310Z,1.60
2022-08-05T17:19:42.364Z,1.30
2022-08-05T17:24:57.795Z,1.50
2022-08-05T17:30:02.464Z,1.08
2022-08-05T17:35:08.472Z,1.30
2022-08-05T17:40:17.633Z,1.02
2022-08-05T17:45:22.785Z,1.10
2022-08-05T17:50:33.057Z,1.20
2022-08-05T17:55:39.672Z,1.10
2022-08-05T18:00:47.828Z,1.42
2022-08-05T18:05:55.118Z,1.10
2022-08-05T18:11:04.463Z,1.48
2022-08-05T18:21:21.182Z,1.20
2022-08-05T18:26:29.215Z,1.52
2022-08-05T18:31:32.938Z,1.08
2022-08-05T18:36:39.533Z,1.17
2022-08-05T18:41:55.881Z,1.15
2022-08-05T18:47:04.819Z,1.95
2022-08-05T18:52:33.127Z,1.38
2022-08-05T18:57:43.210Z,1.45
2022-08-05T19:02:53.222Z,1.30
2022-08-05T19:08:00.176Z,1.20
2022-08-05T19:13:02.792Z,1.20
2022-08-05T19:18:10.461Z,1.33
2022-08-05T19:24:05.881Z,1.40
2022-08-05T19:28:42.287Z,1.40
2022-08-05T19:33:48.229Z,1.48
2022-08-05T19:39:03.731Z,1.50
2022-08-05T19:44:13.027Z,1.50
2022-08-05T19:49:17.657Z,1.60
2022-08-05T19:54:31.285Z,1.30
2022-08-05T19:59:55.807Z,1.80
2022-08-05T20:04:58.715Z,1.67
2022-08-05T20:10:04.810Z,1.15
2022-08-05T20:15:14.151Z,1.38
2022-08-05T20:20:16.956Z,1.55
2022-08-05T20:25:23.187Z,1.92
2022-08-05T20:30:27.501Z,1.70
2022-08-05T20:35:31.594Z,1.90
2022-08-05T20:40:45.617Z,2.22
2022-08-05T20:45:56.190Z,1.50
2022-08-05T20:50:59.689Z,1.98
2022-08-05T20:56:12.059Z,1.80
2022-08-05T21:01:14.795Z,2.20
2022-08-05T21:06:27.609Z,1.92
2022-08-05T21:12:07.034Z,2.10
2022-08-05T21:16:55.299Z,1.70
2022-08-05T21:21:57.866Z,2.40
2022-08-05T21:27:01.774Z,1.83
2022-08-05T21:32:04.766Z,1.98
2022-08-05T21:37:08.136Z,2.08
2022-08-05T21:42:30.752Z,1.95
2022-08-05T21:47:56.745Z,2.40
2022-08-05T21:53:04.498Z,2.13
2022-08-05T21:58:20.214Z,2.13
2022-08-05T22:03:48.957Z,2.45
2022-08-05T22:08:51.819Z,2.30
2022-08-05T22:14:19.487Z,2.75
2022-08-05T22:20:00.303Z,2.67
2022-08-05T22:24:59.234Z,2.50
2022-08-05T22:30:03.281Z,2.75
2022-08-05T22:35:07.193Z,2.90
2022-08-05T22:40:10.777Z,2.50
2022-08-05T22:45:20.942Z,2.65
2022-08-05T22:50:27.790Z,2.42
2022-08-05T22:55:37.056Z,2.50
2022-08-05T23:00:54.686Z,2.30
2022-08-05T23:05:59.893Z,2.28
2022-08-05T23:11:03.576Z,2.30
2022-08-05T23:16:07.375Z,2.40
2022-08-05T23:21:10.918Z,2.17
2022-08-05T23:26:19.936Z,2.33
2022-08-05T23:31:25.505Z,2.08
2022-08-05T23:36:38.694Z,1.60
2022-08-05T23:41:48.607Z,1.73
2022-08-05T23:46:52.987Z,1.40
2022-08-05T23:52:12.982Z,1.33
2022-08-05T23:57:18.979Z,1.38
